Lexington, IN

1:41 AM EDT on May 30, 2015 (GMT -0400)
Henryville | | Change Station
CLOSE
Current Station
Personal Weather Station
Location: Memphis, IN
Elevation: 571 ft
Nearby Weather Stations

Elev 571 ft 38.52 °N, 85.74 °W | Updated 13 minutes ago

Partly Cloudy
Partly Cloudy
69.5 °F
Feels Like 69.5 °F
N
1.0
Wind Variable Wind from SE
Gusts 4.0 mph

Today
High -- | Low -- °F
--% Chance of Precip.
Yesterday
High -- | Low -- °F
Precip. -- in
6:20 AM 8:59 PM
Waxing Gibbous, 88% visible
Pressure 30.06 in
Visibility 10.0 miles
Clouds Scattered Clouds 8000 ft
Mostly Cloudy 9000 ft
Dew Point 67 °F
Humidity 92%
Rainfall 0.00 in
Snow Depth Not available.
UV 0 out of 12
Pollen 5.90 out of 12
Air Quality Not available.
Flu Activity No Activity
METAR KLOU 300453Z AUTO 17003KT 10SM SCT080 BKN090 23/19 A3007 RMK AO2 SLP178 T02280194 402830189

More Conditions Fewer Conditions

Pressure 30.06 in
Visibility 10.0 miles
Clouds Scattered Clouds 8000 ft
Mostly Cloudy 9000 ft
Dew Point 67 °F
Humidity 92%
Rainfall 0.00 in
Snow Depth Not available.
UV 0 out of 12
Pollen 5.90 out of 12
Air Quality Not available.
Flu Activity No Activity
METAR KLOU 300453Z AUTO 17003KT 10SM SCT080 BKN090 23/19 A3007 RMK AO2 SLP178 T02280194 402830189

More Conditions Fewer Conditions

10-Day Weather Forecast

Almanac

Astronomy

May. 30, 2015 Rise Set
Actual Time
Civil Twilight
Nautical Twilight
Astronomical Twilight
Moon
Length of Visible Light
Length of Day
Tomorrow will be .
, % of the Moon is Illuminated

Today's Extremes

State Highs State Lows

Community

WunderPhotos

Upload Photos

1,825,473 photos uploaded!

WunderBlogs® & News

Nearby

Air Quality

  Air Quality AQ Index Pollutant
Not available.

Snow Depth

Station Depth Elevation

Earthquake Activity

City Distance Mag. Time & Date
Minimum magnitude displayed is 2.5.

Coastal Water Temperatures

Place Temperature

Stations

Nearby Weather Stations

Station Location Temp. Windchill Dew Point Humidity Wind Precip. Elev Updated Type